createdAt,value
2023-02-12T00:00:41.676Z,4.28
2023-02-12T00:05:42.434Z,4.27
2023-02-12T00:10:44.028Z,4.12
2023-02-12T00:15:44.921Z,3.93
2023-02-12T00:20:45.683Z,3.93
2023-02-12T00:25:46.580Z,3.94
2023-02-12T00:30:47.485Z,3.81
2023-02-12T00:35:56.280Z,3.86
2023-02-12T00:40:57.185Z,3.93
2023-02-12T00:45:58.605Z,3.94
2023-02-12T00:51:01.374Z,4.26
2023-02-12T00:56:02.779Z,4.38
2023-02-12T01:01:03.792Z,4.60
2023-02-12T01:06:05.315Z,4.66
2023-02-12T01:11:06.616Z,4.74
2023-02-12T01:16:19.411Z,4.83
2023-02-12T01:21:26.217Z,4.90
2023-02-12T01:26:28.041Z,4.87
2023-02-12T01:31:32.002Z,4.81
2023-02-12T01:36:33.893Z,4.97
2023-02-12T01:41:38.873Z,4.87
2023-02-12T01:46:41.042Z,4.81
2023-02-12T01:51:44.944Z,4.82
2023-02-12T01:56:47.135Z,4.76
2023-02-12T02:01:48.217Z,4.59
2023-02-12T02:07:00.477Z,4.60
2023-02-12T02:12:19.865Z,4.60
2023-02-12T02:19:01.879Z,4.45
2023-02-12T02:29:02.104Z,4.34
2023-02-12T02:34:11.431Z,4.32
2023-02-12T02:40:54.079Z,4.29
2023-02-12T02:46:02.419Z,4.41
2023-02-12T02:51:11.173Z,4.51
2023-02-12T02:56:17.040Z,4.33
2023-02-12T03:01:38.198Z,4.19
2023-02-12T03:06:54.910Z,4.14
2023-02-12T03:12:00.929Z,4.21
2023-02-12T03:17:13.315Z,4.21
2023-02-12T03:22:19.401Z,4.20
2023-02-12T03:27:28.833Z,4.34
2023-02-12T03:33:01.174Z,4.30
2023-02-12T03:38:40.940Z,4.39
2023-02-12T03:43:59.191Z,4.39
2023-02-12T03:49:09.106Z,4.39
2023-02-12T03:54:13.308Z,4.45
2023-02-12T03:59:14.166Z,4.50
2023-02-12T04:04:15.535Z,4.33
2023-02-12T04:09:17.221Z,4.38
2023-02-12T04:14:54.363Z,4.40
2023-02-12T04:20:41.440Z,4.30
2023-02-12T04:27:16.588Z,4.25
2023-02-12T04:32:34.748Z,4.30
2023-02-12T04:37:41.028Z,4.19
2023-02-12T04:42:43.417Z,4.24
2023-02-12T04:47:44.191Z,4.32
2023-02-12T04:52:45.628Z,4.25
2023-02-12T04:57:47.081Z,4.30
2023-02-12T05:02:47.818Z,4.33
2023-02-12T05:07:48.589Z,4.33
2023-02-12T05:12:51.908Z,4.45
2023-02-12T05:17:52.584Z,4.37
2023-02-12T05:22:53.511Z,4.33
2023-02-12T05:27:55.872Z,4.44
2023-02-12T05:32:56.609Z,4.37
2023-02-12T05:37:57.349Z,4.45
2023-02-12T05:42:58.166Z,4.55
2023-02-12T05:47:59.151Z,4.46
2023-02-12T05:53:00.541Z,4.55
2023-02-12T05:58:01.270Z,4.56
2023-02-12T06:03:02.039Z,4.43
2023-02-12T06:08:03.064Z,4.48
2023-02-12T06:13:03.876Z,4.50
2023-02-12T06:18:04.673Z,4.46
2023-02-12T06:23:05.400Z,4.52
2023-02-12T06:28:06.469Z,4.58
2023-02-12T06:33:07.270Z,4.48
2023-02-12T06:38:08.520Z,4.62
2023-02-12T06:43:09.550Z,4.67
2023-02-12T06:48:10.292Z,4.67
2023-02-12T06:53:11.067Z,4.72
2023-02-12T06:58:11.827Z,4.74
2023-02-12T07:03:12.560Z,4.65
2023-02-12T07:08:14.449Z,4.69
2023-02-12T07:13:15.438Z,4.68
2023-02-12T07:18:16.234Z,4.54
2023-02-12T07:23:16.973Z,4.54
2023-02-12T07:28:17.857Z,4.70
2023-02-12T07:33:19.113Z,4.84
2023-02-12T07:38:19.844Z,4.89
2023-02-12T07:43:20.645Z,5.00
2023-02-12T07:48:21.381Z,4.96
2023-02-12T07:53:22.114Z,4.81
2023-02-12T07:58:22.856Z,4.33
2023-02-12T08:03:24.040Z,4.50
2023-02-12T08:08:24.863Z,4.64
2023-02-12T08:13:25.769Z,4.47
2023-02-12T08:18:26.565Z,4.62
2023-02-12T08:23:27.278Z,4.70
2023-02-12T08:28:28.295Z,4.80
2023-02-12T08:33:29.131Z,5.00
2023-02-12T08:38:31.846Z,5.09
2023-02-12T08:43:33.069Z,5.19
2023-02-12T08:48:33.874Z,5.21
2023-02-12T08:53:35.013Z,5.25
2023-02-12T08:58:36.923Z,5.29
2023-02-12T09:03:38.316Z,5.36
2023-02-12T09:08:39.637Z,5.45
2023-02-12T09:13:40.531Z,5.39
2023-02-12T09:18:41.678Z,5.41
2023-02-12T09:23:43.471Z,5.40
2023-02-12T09:28:44.455Z,5.46
2023-02-12T09:33:45.607Z,5.64
2023-02-12T09:38:47.439Z,5.61
2023-02-12T09:47:59.744Z,5.61
2023-02-12T09:53:01.453Z,5.47
2023-02-12T09:58:10.446Z,5.41
2023-02-12T10:03:15.010Z,5.23
2023-02-12T10:10:01.200Z,5.26
2023-02-12T10:15:55.865Z,5.40
2023-02-12T10:21:14.948Z,5.51
2023-02-12T10:26:25.192Z,5.70
2023-02-12T10:31:31.775Z,5.67
2023-02-12T10:36:41.633Z,5.73
2023-02-12T10:41:46.979Z,5.59
2023-02-12T10:46:47.900Z,5.63
2023-02-12T10:52:21.223Z,5.59
2023-02-12T10:57:25.632Z,5.46
2023-02-12T11:02:29.951Z,5.55
2023-02-12T11:07:46.945Z,5.52
2023-02-12T11:12:48.451Z,5.67
2023-02-12T11:18:04.326Z,5.86
2023-02-12T11:23:23.597Z,5.60
2023-02-12T11:28:24.922Z,5.67
2023-02-12T11:33:44.885Z,5.77
2023-02-12T11:38:54.507Z,5.83
2023-02-12T11:43:55.889Z,5.76
2023-02-12T11:48:57.409Z,5.85
2023-02-12T11:54:01.620Z,5.91
2023-02-12T11:59:17.173Z,5.86
2023-02-12T12:04:23.420Z,5.98
2023-02-12T12:09:32.422Z,5.95
2023-02-12T12:15:13.658Z,6.12
2023-02-12T12:20:23.110Z,5.97
2023-02-12T12:25:30.979Z,6.12
2023-02-12T12:32:25.593Z,6.05
2023-02-12T12:37:46.070Z,5.87
2023-02-12T12:43:09.643Z,6.10
2023-02-12T12:48:39.587Z,6.13
2023-02-12T12:57:10.751Z,6.16
2023-02-12T13:10:52.042Z,6.18
2023-02-12T13:16:13.941Z,6.21
2023-02-12T13:23:58.950Z,6.12
2023-02-12T13:29:14.796Z,6.03
2023-02-12T13:34:18.204Z,6.06
2023-02-12T13:39:45.506Z,6.08
2023-02-12T13:50:30.766Z,6.20
2023-02-12T13:55:56.529Z,6.30
2023-02-12T14:01:01.821Z,6.31
2023-02-12T14:06:19.441Z,6.15
2023-02-12T14:11:23.962Z,6.20
2023-02-12T14:16:57.789Z,6.26
2023-02-12T14:22:09.569Z,6.32
2023-02-12T14:28:20.593Z,6.25
2023-02-12T14:33:25.423Z,6.25
2023-02-12T14:40:15.641Z,6.22
2023-02-12T14:45:35.919Z,6.20
2023-02-12T14:50:42.533Z,6.28
2023-02-12T14:55:46.450Z,6.32
2023-02-12T15:00:51.627Z,6.30
2023-02-12T15:09:34.919Z,6.21
2023-02-12T15:14:42.282Z,6.05
2023-02-12T15:20:01.961Z,5.96
2023-02-12T15:25:26.443Z,6.02
2023-02-12T15:30:32.283Z,6.00
2023-02-12T15:35:39.034Z,6.16
2023-02-12T15:40:54.229Z,6.09
2023-02-12T15:45:55.453Z,5.99
2023-02-12T15:51:28.882Z,6.15
2023-02-12T15:56:31.187Z,6.17
2023-02-12T16:01:34.313Z,6.10
2023-02-12T16:06:38.669Z,6.15
2023-02-12T16:11:43.247Z,6.22
2023-02-12T16:16:49.642Z,6.16
2023-02-12T16:22:09.680Z,5.86
2023-02-12T16:27:23.374Z,5.91
2023-02-12T16:32:32.177Z,5.87
2023-02-12T16:37:55.526Z,5.81
2023-02-12T16:42:58.052Z,6.05
2023-02-12T16:48:24.600Z,5.92
2023-02-12T16:53:32.800Z,5.83
2023-02-12T16:58:33.585Z,5.80
2023-02-12T17:03:34.983Z,5.81
2023-02-12T17:08:35.723Z,5.83
2023-02-12T17:13:37.051Z,5.69
2023-02-12T17:18:38.057Z,5.87
2023-02-12T17:23:41.065Z,5.77
2023-02-12T17:28:41.999Z,5.77
2023-02-12T17:33:42.938Z,5.78
2023-02-12T17:38:43.755Z,5.91
2023-02-12T17:43:45.786Z,5.88
2023-02-12T17:48:46.517Z,5.83
2023-02-12T17:53:47.819Z,5.93
2023-02-12T17:58:48.924Z,5.95
2023-02-12T18:03:50.849Z,5.85
2023-02-12T18:08:51.846Z,5.70
2023-02-12T18:13:55.133Z,5.87
2023-02-12T18:18:56.481Z,5.76
2023-02-12T18:23:57.258Z,5.83
2023-02-12T18:28:58.608Z,5.64
2023-02-12T18:33:59.384Z,5.76
2023-02-12T18:39:00.368Z,5.79
2023-02-12T18:44:01.986Z,5.80
2023-02-12T18:49:03.408Z,5.95
2023-02-12T18:54:07.515Z,5.92
2023-02-12T18:59:10.870Z,5.90
2023-02-12T19:04:12.193Z,5.86
2023-02-12T19:09:15.826Z,5.75
2023-02-12T19:14:18.824Z,5.67
2023-02-12T19:19:20.239Z,5.62
2023-02-12T19:24:21.141Z,5.61
2023-02-12T19:29:21.902Z,5.61
2023-02-12T19:34:24.109Z,5.66
2023-02-12T19:39:24.911Z,5.56
2023-02-12T19:44:26.111Z,5.52
2023-02-12T19:49:28.219Z,5.73
2023-02-12T19:54:29.029Z,5.67
2023-02-12T19:59:30.039Z,5.74
2023-02-12T20:04:30.938Z,5.67
2023-02-12T20:09:31.674Z,5.58
2023-02-12T20:14:32.547Z,5.70
2023-02-12T20:19:33.274Z,5.72
2023-02-12T20:24:34.107Z,5.73
2023-02-12T20:29:34.841Z,5.72
2023-02-12T20:34:49.956Z,5.62
2023-02-12T20:39:51.495Z,5.60
2023-02-12T20:44:52.338Z,5.55
2023-02-12T20:49:57.242Z,5.39
2023-02-12T20:54:58.188Z,5.28
2023-02-12T20:59:58.928Z,5.29
2023-02-12T21:04:59.883Z,5.28
2023-02-12T21:10:00.999Z,5.25
2023-02-12T21:15:02.621Z,5.28
2023-02-12T21:20:04.614Z,5.35
2023-02-12T21:25:05.743Z,5.34
2023-02-12T21:30:08.656Z,5.36
2023-02-12T21:35:09.441Z,5.37
2023-02-12T21:40:10.651Z,5.38
2023-02-12T21:45:11.545Z,5.32
2023-02-12T21:50:13.914Z,5.28
2023-02-12T21:55:14.791Z,5.24
2023-02-12T22:00:16.098Z,5.13
2023-02-12T22:05:16.953Z,5.11
2023-02-12T22:10:17.881Z,5.05
2023-02-12T22:15:18.818Z,5.05
2023-02-12T22:20:19.712Z,5.10
2023-02-12T22:25:21.341Z,5.04
2023-02-12T22:30:22.163Z,5.00
2023-02-12T22:35:22.904Z,4.99
2023-02-12T22:40:23.685Z,4.96
2023-02-12T22:45:24.597Z,4.99
2023-02-12T22:50:25.824Z,4.93
2023-02-12T22:55:26.569Z,4.99
2023-02-12T23:00:27.342Z,4.96
2023-02-12T23:05:28.311Z,4.93
2023-02-12T23:10:29.114Z,4.84
2023-02-12T23:15:30.155Z,4.76
2023-02-12T23:20:30.899Z,4.79
2023-02-12T23:25:31.667Z,4.77
2023-02-12T23:30:32.516Z,4.68
2023-02-12T23:35:33.342Z,4.58
2023-02-12T23:40:34.099Z,4.60
2023-02-12T23:45:34.944Z,4.50
2023-02-12T23:50:35.723Z,4.50
2023-02-12T23:55:37.366Z,4.46
